Time;durP1;ratioP1;P1;durP2;ratioP2;P2;SDS_P1;SDS_P2;PMS_P1;PMS_P2;Temp;Humidity;BMP_temperature;BMP_pressure;BME280_temperature;BME280_humidity;BME280_pressure;Samples;Min_cycle;Max_cycle;Signal;HPM_P1;HPM_P2
2021/12/19 00:00:51;;;;;;;14.20;8.67;;;5.40;99.90;;;;;;5074326;28;20219;-69
2021/12/19 00:03:58;;;;;;;12.37;7.93;;;5.30;99.90;;;;;;5078792;28;20748;-70
2021/12/19 00:09:56;;;;;;;12.13;8.53;;;5.40;99.90;;;;;;5063675;28;20231;-69
2021/12/19 00:12:45;;;;;;;14.03;8.70;;;5.30;99.90;;;;;;5076403;28;20222;-68
2021/12/19 00:15:35;;;;;;;11.03;8.13;;;5.30;99.90;;;;;;5076668;28;20216;-69
2021/12/19 00:18:24;;;;;;;11.73;7.80;;;5.30;99.90;;;;;;5087643;27;20240;-69
2021/12/19 00:21:15;;;;;;;12.43;7.97;;;5.30;99.90;;;;;;5075931;28;20227;-69
2021/12/19 00:24:04;;;;;;;12.47;8.70;;;5.30;99.90;;;;;;5073258;28;20226;-69
2021/12/19 00:26:52;;;;;;;13.07;9.47;;;5.30;99.90;;;;;;5075481;28;20741;-69
2021/12/19 00:29:41;;;;;;;14.13;9.80;;;5.30;99.90;;;;;;5073085;28;20620;-69
2021/12/19 00:32:31;;;;;;;13.53;9.93;;;5.30;99.90;;;;;;5079955;28;20296;-70
2021/12/19 00:35:23;;;;;;;15.33;9.67;;;5.30;99.90;;;;;;5078026;28;20223;-70
2021/12/19 00:38:11;;;;;;;13.73;10.20;;;5.30;99.90;;;;;;5086150;28;20222;-70
2021/12/19 00:41:01;;;;;;;14.13;9.70;;;5.30;99.90;;;;;;5077099;28;20238;-70
2021/12/19 00:43:54;;;;;;;13.30;9.00;;;5.20;99.90;;;;;;5076921;28;20313;-69
2021/12/19 00:46:49;;;;;;;13.20;8.87;;;5.20;99.90;;;;;;5072553;28;20589;-68
2021/12/19 00:49:41;;;;;;;12.53;9.33;;;5.20;99.90;;;;;;5081707;28;20707;-68
2021/12/19 00:52:29;;;;;;;11.60;7.77;;;5.20;99.90;;;;;;5083333;28;20322;-70
2021/12/19 00:55:20;;;;;;;11.07;7.77;;;5.30;99.90;;;;;;5075508;28;20231;-69
2021/12/19 00:58:08;;;;;;;8.57;5.90;;;5.30;99.90;;;;;;5081001;28;20803;-70
2021/12/19 01:00:57;;;;;;;9.83;6.50;;;5.30;99.90;;;;;;5075798;28;20216;-68
2021/12/19 01:03:48;;;;;;;10.30;6.37;;;5.20;99.90;;;;;;5075161;28;20915;-69
2021/12/19 01:06:39;;;;;;;9.23;6.50;;;5.20;99.90;;;;;;5075195;28;20898;-68
2021/12/19 01:09:28;;;;;;;8.97;6.20;;;5.20;99.90;;;;;;5073554;28;20280;-68
2021/12/19 01:12:16;;;;;;;10.13;6.83;;;5.30;99.90;;;;;;5076152;28;20235;-68
2021/12/19 01:15:06;;;;;;;8.87;6.17;;;5.20;99.90;;;;;;5077898;28;21020;-68
2021/12/19 01:17:55;;;;;;;9.83;6.63;;;5.20;99.90;;;;;;5084880;28;20315;-67
2021/12/19 01:20:44;;;;;;;10.57;7.53;;;5.20;99.90;;;;;;5096856;28;20317;-68
2021/12/19 01:23:39;;;;;;;9.40;6.73;;;5.20;99.90;;;;;;5090457;27;20229;-68
2021/12/19 01:26:27;;;;;;;11.40;7.37;;;5.30;99.90;;;;;;5090449;27;20217;-66
2021/12/19 01:29:16;;;;;;;10.97;7.57;;;5.30;99.90;;;;;;5096506;28;20222;-68
2021/12/19 01:32:06;;;;;;;10.57;7.20;;;5.20;99.90;;;;;;5097349;28;20214;-69
2021/12/19 01:34:55;;;;;;;9.33;7.17;;;5.30;99.90;;;;;;5092815;27;20217;-69
2021/12/19 01:37:43;;;;;;;9.70;7.40;;;5.20;99.90;;;;;;5092702;28;20227;-68
2021/12/19 01:40:34;;;;;;;10.20;7.30;;;5.20;99.90;;;;;;5084841;28;20221;-71
2021/12/19 01:43:24;;;;;;;10.73;7.70;;;5.20;99.90;;;;;;5096701;27;20575;-69
2021/12/19 01:46:13;;;;;;;10.23;7.40;;;5.20;99.90;;;;;;5093896;27;20642;-69
2021/12/19 01:49:02;;;;;;;9.17;6.77;;;5.30;99.90;;;;;;5080751;28;20235;-69
2021/12/19 01:51:51;;;;;;;10.27;7.13;;;5.20;99.90;;;;;;5082339;28;20230;-69
2021/12/19 01:54:40;;;;;;;8.80;6.87;;;5.10;99.90;;;;;;5079615;28;20219;-70
2021/12/19 01:57:30;;;;;;;9.40;6.60;;;5.10;99.90;;;;;;5094632;27;20267;-70
2021/12/19 02:00:23;;;;;;;10.47;6.93;;;5.10;99.90;;;;;;5080066;27;20211;-69
2021/12/19 02:03:12;;;;;;;9.10;6.57;;;5.20;99.90;;;;;;5097142;28;20249;-71
2021/12/19 02:06:01;;;;;;;7.63;6.13;;;5.20;99.90;;;;;;5082147;28;20219;-66
2021/12/19 02:08:53;;;;;;;8.33;6.07;;;5.20;99.90;;;;;;5095055;28;20229;-68
2021/12/19 02:11:42;;;;;;;10.50;6.30;;;5.20;99.90;;;;;;5080734;28;20557;-69
2021/12/19 02:14:32;;;;;;;7.83;5.97;;;5.20;99.90;;;;;;5083093;28;20223;-69
2021/12/19 02:17:21;;;;;;;7.30;5.90;;;5.20;99.90;;;;;;5097907;28;20238;-68
2021/12/19 02:20:12;;;;;;;9.53;5.80;;;5.10;99.90;;;;;;5096260;28;20236;-70
2021/12/19 02:23:01;;;;;;;7.27;5.37;;;5.10;99.90;;;;;;5081243;28;20839;-69
2021/12/19 02:25:50;;;;;;;8.00;6.17;;;5.20;99.90;;;;;;5084898;28;20222;-67
2021/12/19 02:28:39;;;;;;;7.67;5.40;;;5.10;99.90;;;;;;5083258;28;20321;-69
2021/12/19 02:31:29;;;;;;;8.10;5.67;;;5.20;99.90;;;;;;5079406;28;20226;-69
2021/12/19 02:34:22;;;;;;;7.90;6.20;;;5.20;99.90;;;;;;5093687;28;20214;-70
2021/12/19 02:37:32;;;;;;;7.33;5.10;;;5.20;99.90;;;;;;5096825;28;20237;-69
2021/12/19 02:40:32;;;;;;;8.67;5.70;;;5.20;99.90;;;;;;5090281;28;20222;-68
2021/12/19 02:49:35;;;;;;;6.67;5.13;;;5.30;99.90;;;;;;5079885;27;20209;-68
2021/12/19 02:52:25;;;;;;;9.30;5.77;;;5.30;99.90;;;;;;5082867;28;20348;-72
2021/12/19 02:55:16;;;;;;;8.13;6.00;;;5.20;99.90;;;;;;5081773;28;20611;-68
2021/12/19 02:58:05;;;;;;;6.60;5.80;;;5.20;99.90;;;;;;5096612;27;20215;-69
2021/12/19 03:00:54;;;;;;;7.70;6.10;;;5.20;99.90;;;;;;5092199;27;20225;-69
2021/12/19 03:03:43;;;;;;;8.10;5.90;;;5.30;99.90;;;;;;5097944;27;20232;-65
2021/12/19 03:06:32;;;;;;;9.43;5.97;;;5.30;99.90;;;;;;5095505;28;20213;-68
2021/12/19 03:09:41;;;;;;;8.27;5.57;;;5.30;99.90;;;;;;5084890;27;20237;-66
2021/12/19 03:12:42;;;;;;;7.83;6.13;;;5.20;99.90;;;;;;5100130;27;20250;-68
2021/12/19 03:18:39;;;;;;;7.37;5.50;;;5.20;99.90;;;;;;5095954;28;20222;-68
2021/12/19 03:21:28;;;;;;;7.40;5.50;;;5.30;99.90;;;;;;5096914;27;20618;-69
2021/12/19 03:24:18;;;;;;;7.80;6.03;;;5.20;99.90;;;;;;5091623;27;20273;-68
2021/12/19 03:27:08;;;;;;;8.67;5.77;;;5.20;99.90;;;;;;5097044;27;20229;-69
2021/12/19 03:29:57;;;;;;;10.83;7.13;;;5.20;99.90;;;;;;5098102;27;20227;-68
2021/12/19 03:32:46;;;;;;;8.43;5.83;;;5.30;99.90;;;;;;5079678;27;20228;-69
2021/12/19 03:35:35;;;;;;;8.80;6.30;;;5.40;99.90;;;;;;5086138;27;20352;-68
2021/12/19 03:38:25;;;;;;;9.83;6.60;;;5.30;99.90;;;;;;5081550;28;20227;-68
2021/12/19 03:41:21;;;;;;;11.37;6.90;;;5.30;99.90;;;;;;5082905;28;20256;-68
2021/12/19 03:44:12;;;;;;;9.63;7.20;;;5.30;99.90;;;;;;5083927;28;20304;-68
2021/12/19 03:47:00;;;;;;;8.50;6.53;;;5.30;99.90;;;;;;5084648;28;20282;-67
2021/12/19 03:49:49;;;;;;;9.03;6.47;;;5.30;99.90;;;;;;5089823;27;20233;-68
2021/12/19 03:52:38;;;;;;;11.03;6.80;;;5.30;99.90;;;;;;5095318;28;20215;-68
2021/12/19 03:55:28;;;;;;;9.73;7.17;;;5.40;99.90;;;;;;5069960;28;20237;-68
2021/12/19 03:58:18;;;;;;;8.83;6.37;;;5.40;99.90;;;;;;5092660;28;20214;-68
2021/12/19 04:01:09;;;;;;;9.87;6.70;;;5.40;99.90;;;;;;5082790;28;20222;-69
2021/12/19 04:03:58;;;;;;;9.97;6.70;;;5.40;99.90;;;;;;5096625;27;20218;-70
2021/12/19 04:06:48;;;;;;;9.80;6.73;;;5.50;99.90;;;;;;5094736;27;20304;-68
2021/12/19 04:09:36;;;;;;;9.40;6.80;;;5.50;99.90;;;;;;5096367;27;20242;-69
2021/12/19 04:12:28;;;;;;;8.97;6.77;;;5.50;99.90;;;;;;5092625;27;20827;-68
2021/12/19 04:15:16;;;;;;;8.87;6.57;;;5.50;99.90;;;;;;5075263;28;20713;-69
2021/12/19 04:18:10;;;;;;;9.70;6.40;;;5.50;99.90;;;;;;5082726;28;20215;-68
2021/12/19 04:20:59;;;;;;;8.07;6.03;;;5.50;99.90;;;;;;5079735;28;20743;-69
2021/12/19 04:23:47;;;;;;;6.87;5.63;;;5.50;99.90;;;;;;5093134;27;20231;-69
2021/12/19 04:26:36;;;;;;;7.80;6.03;;;5.50;99.90;;;;;;5088096;28;20227;-69
2021/12/19 04:29:25;;;;;;;8.43;5.90;;;5.50;99.90;;;;;;5099324;27;20219;-66
2021/12/19 04:32:14;;;;;;;7.40;5.37;;;5.50;99.90;;;;;;5098505;27;20241;-68
2021/12/19 04:35:05;;;;;;;8.53;5.73;;;5.50;99.90;;;;;;5083270;28;20239;-68
2021/12/19 04:53:51;;;;;;;7.40;5.27;;;5.70;99.90;;;;;;5076214;28;20226;-69
2021/12/19 04:56:48;;;;;;;7.63;5.20;;;5.60;99.90;;;;;;5092620;27;20235;-69
2021/12/19 04:59:52;;;;;;;7.43;5.37;;;5.70;99.90;;;;;;5082943;27;20218;-68
2021/12/19 05:02:50;;;;;;;8.37;6.17;;;5.80;99.90;;;;;;5079473;28;20746;-69
2021/12/19 05:05:57;;;;;;;8.40;5.87;;;5.80;99.90;;;;;;5098313;27;20233;-68
2021/12/19 05:15:13;;;;;;;9.83;5.87;;;5.80;99.90;;;;;;5032980;28;20301;-68
2021/12/19 05:18:05;;;;;;;9.10;6.00;;;5.80;99.90;;;;;;5018708;28;20224;-69
2021/12/19 05:20:59;;;;;;;11.83;7.50;;;5.90;99.90;;;;;;5073987;28;20214;-67
2021/12/19 05:24:16;;;;;;;12.17;7.57;;;5.80;99.90;;;;;;5093258;27;20231;-68
2021/12/19 05:27:01;;;;;;;12.10;7.67;;;5.80;99.90;;;;;;5079517;28;20602;-69
2021/12/19 05:29:50;;;;;;;11.30;7.63;;;5.90;99.90;;;;;;5081831;28;20214;-68
2021/12/19 05:32:39;;;;;;;11.90;8.20;;;5.90;99.90;;;;;;5091835;28;20227;-69
2021/12/19 05:35:46;;;;;;;15.13;8.57;;;5.90;99.90;;;;;;5092160;27;20240;-69
2021/12/19 05:47:54;;;;;;;19.00;9.67;;;5.90;99.90;;;;;;5083168;27;20235;-68
2021/12/19 05:50:44;;;;;;;15.10;9.30;;;6.00;99.90;;;;;;5068714;28;20258;-68
2021/12/19 05:53:32;;;;;;;17.47;10.80;;;5.90;99.90;;;;;;5092511;27;20222;-69
2021/12/19 05:56:23;;;;;;;18.90;10.47;;;6.00;99.90;;;;;;5094870;28;20270;-68
2021/12/19 05:59:12;;;;;;;17.37;10.47;;;6.10;99.90;;;;;;5087032;27;20214;-69
2021/12/19 06:02:01;;;;;;;13.80;10.37;;;6.10;99.90;;;;;;5078073;28;20344;-69
2021/12/19 06:04:49;;;;;;;20.10;10.10;;;6.10;99.90;;;;;;5094565;27;20219;-70
2021/12/19 06:07:38;;;;;;;15.93;10.57;;;6.10;99.90;;;;;;5095359;28;20230;-69
2021/12/19 06:10:28;;;;;;;17.23;10.23;;;6.10;99.90;;;;;;5082028;28;20309;-69
2021/12/19 06:13:18;;;;;;;16.67;9.63;;;6.10;99.90;;;;;;5094604;28;20659;-69
2021/12/19 06:16:08;;;;;;;20.93;10.20;;;6.10;99.90;;;;;;5080550;28;20242;-71
2021/12/19 06:18:57;;;;;;;16.80;10.23;;;6.10;99.90;;;;;;5079059;28;20223;-69
2021/12/19 06:21:45;;;;;;;16.03;10.00;;;6.20;99.90;;;;;;5095004;28;20223;-68
2021/12/19 06:24:34;;;;;;;17.90;9.40;;;6.20;99.90;;;;;;5100908;27;20251;-68
2021/12/19 06:27:27;;;;;;;16.33;9.97;;;6.20;99.90;;;;;;5087762;27;20227;-68
2021/12/19 06:30:17;;;;;;;15.70;10.30;;;6.20;99.90;;;;;;5101229;27;20306;-69
2021/12/19 06:33:05;;;;;;;11.40;8.17;;;6.20;99.90;;;;;;5086259;27;20233;-69
2021/12/19 06:35:54;;;;;;;13.83;8.47;;;6.20;99.90;;;;;;5098952;27;20214;-69
2021/12/19 06:38:44;;;;;;;12.53;7.93;;;6.30;99.90;;;;;;5100873;27;20823;-69
2021/12/19 06:41:34;;;;;;;18.63;8.07;;;6.30;99.90;;;;;;5099012;27;20227;-68
2021/12/19 06:44:23;;;;;;;16.23;8.97;;;6.20;99.90;;;;;;5100365;27;20233;-70
2021/12/19 06:47:13;;;;;;;14.67;7.93;;;6.30;99.90;;;;;;5087293;27;20226;-66
2021/12/19 06:50:02;;;;;;;16.50;7.37;;;6.30;99.90;;;;;;5099976;27;20559;-69
2021/12/19 06:52:51;;;;;;;12.63;7.07;;;6.30;99.90;;;;;;5101015;27;20226;-70
2021/12/19 06:55:39;;;;;;;12.40;6.77;;;6.30;99.90;;;;;;5085515;27;20670;-69
2021/12/19 06:58:28;;;;;;;10.23;6.53;;;6.30;99.90;;;;;;5101250;27;20226;-68
2021/12/19 07:01:17;;;;;;;10.63;6.90;;;6.40;99.90;;;;;;5101704;27;20219;-69
2021/12/19 07:04:08;;;;;;;12.43;7.27;;;6.30;99.90;;;;;;5087300;28;20222;-71
2021/12/19 07:06:57;;;;;;;13.73;6.33;;;6.30;99.90;;;;;;5100771;27;20226;-71
2021/12/19 07:09:45;;;;;;;10.13;6.10;;;6.30;99.90;;;;;;5087038;27;20254;-71
2021/12/19 07:12:34;;;;;;;7.67;5.63;;;6.30;99.90;;;;;;5102980;27;20234;-72
2021/12/19 07:15:24;;;;;;;8.63;6.17;;;6.30;99.90;;;;;;5100071;27;20246;-71
2021/12/19 07:18:13;;;;;;;10.80;6.47;;;6.30;99.90;;;;;;5099925;27;20259;-72
2021/12/19 07:21:03;;;;;;;12.53;6.40;;;6.40;99.90;;;;;;5102215;27;20686;-70
2021/12/19 07:23:52;;;;;;;10.07;6.43;;;6.40;99.90;;;;;;5087199;27;20234;-70
2021/12/19 07:26:40;;;;;;;11.87;6.70;;;6.30;99.90;;;;;;5101380;27;20218;-69
2021/12/19 07:29:30;;;;;;;13.20;7.20;;;6.40;99.90;;;;;;5099733;27;20334;-69
2021/12/19 07:32:19;;;;;;;12.37;7.43;;;6.40;99.90;;;;;;5099601;27;20223;-68
2021/12/19 07:35:10;;;;;;;14.27;7.73;;;6.40;99.90;;;;;;5097374;27;20218;-70
2021/12/19 07:38:04;;;;;;;14.73;7.87;;;6.40;99.90;;;;;;5096802;27;20225;-70
2021/12/19 07:40:56;;;;;;;16.00;7.67;;;6.40;99.90;;;;;;5084326;28;20364;-69
2021/12/19 07:43:45;;;;;;;14.17;7.30;;;6.40;99.90;;;;;;5084996;27;20227;-70
2021/12/19 07:46:34;;;;;;;12.67;6.73;;;6.40;99.90;;;;;;5096531;27;20223;-69
2021/12/19 07:49:22;;;;;;;13.37;7.57;;;6.40;99.90;;;;;;5065990;27;20219;-68
2021/12/19 07:52:14;;;;;;;13.47;7.50;;;6.40;99.90;;;;;;5098065;27;20230;-68
2021/12/19 07:55:07;;;;;;;9.83;7.20;;;6.50;99.90;;;;;;5097556;27;20226;-67
2021/12/19 07:57:56;;;;;;;12.20;7.10;;;6.40;99.90;;;;;;5098725;28;20234;-69
2021/12/19 08:00:45;;;;;;;15.93;7.67;;;6.40;99.90;;;;;;5083830;27;20291;-70
2021/12/19 08:03:34;;;;;;;13.93;6.80;;;6.50;99.90;;;;;;5089300;28;20317;-68
2021/12/19 08:06:23;;;;;;;14.33;7.20;;;6.50;99.90;;;;;;5098470;27;20313;-69
2021/12/19 08:09:21;;;;;;;12.27;7.30;;;6.50;99.90;;;;;;5097193;27;20714;-69
2021/12/19 08:12:11;;;;;;;10.33;6.90;;;6.50;99.90;;;;;;5095869;27;20789;-69
2021/12/19 08:15:00;;;;;;;10.43;6.63;;;6.50;99.90;;;;;;5098291;27;21189;-69
2021/12/19 08:17:49;;;;;;;12.30;7.07;;;6.50;99.90;;;;;;5094761;27;20230;-68
2021/12/19 08:20:38;;;;;;;11.67;7.57;;;6.40;99.90;;;;;;5084114;28;20234;-69
2021/12/19 08:23:26;;;;;;;14.67;7.47;;;6.50;99.90;;;;;;5096051;27;20223;-68
2021/12/19 08:26:16;;;;;;;13.70;7.10;;;6.50;99.90;;;;;;5097396;27;20214;-69
2021/12/19 08:29:06;;;;;;;11.30;6.13;;;6.50;99.90;;;;;;5082370;27;20238;-70
2021/12/19 08:31:54;;;;;;;15.33;6.73;;;6.60;99.90;;;;;;5094334;27;20237;-71
2021/12/19 08:34:43;;;;;;;11.77;6.07;;;6.50;99.90;;;;;;5095156;27;20215;-70
2021/12/19 08:37:32;;;;;;;10.03;6.77;;;6.60;99.90;;;;;;5097337;27;20233;-71
2021/12/19 08:40:22;;;;;;;10.70;6.57;;;6.60;99.90;;;;;;5082201;28;20234;-70
2021/12/19 08:43:12;;;;;;;13.63;6.87;;;6.70;99.90;;;;;;5099467;27;20261;-71
2021/12/19 08:46:02;;;;;;;10.03;5.70;;;6.70;99.90;;;;;;5098750;28;20223;-71
2021/12/19 08:48:50;;;;;;;10.10;5.53;;;6.70;99.90;;;;;;5097094;28;20218;-71
2021/12/19 08:51:40;;;;;;;9.17;5.50;;;6.70;99.90;;;;;;5100086;28;20230;-71
2021/12/19 08:54:29;;;;;;;12.33;5.70;;;6.70;99.90;;;;;;5096574;27;20311;-71
2021/12/19 08:57:17;;;;;;;13.30;5.70;;;6.70;99.90;;;;;;5092939;28;20305;-72
2021/12/19 09:00:10;;;;;;;12.60;5.23;;;6.70;99.90;;;;;;5095019;27;20230;-71
2021/12/19 09:03:01;;;;;;;13.43;5.40;;;6.70;99.90;;;;;;5080851;28;20238;-70
2021/12/19 09:05:49;;;;;;;9.77;5.40;;;6.70;99.90;;;;;;5080464;27;20219;-71
2021/12/19 09:08:38;;;;;;;8.97;5.40;;;6.70;99.90;;;;;;5096223;28;20257;-72
2021/12/19 09:11:27;;;;;;;14.53;5.17;;;6.70;99.90;;;;;;5097366;27;20718;-73
2021/12/19 09:14:15;;;;;;;15.73;4.50;;;6.70;99.90;;;;;;5095969;27;20258;-71
2021/12/19 09:17:04;;;;;;;10.30;4.60;;;6.70;99.90;;;;;;5084941;28;20231;-73
2021/12/19 09:19:54;;;;;;;9.67;4.50;;;6.70;99.90;;;;;;5097179;28;20237;-72
2021/12/19 09:22:43;;;;;;;8.37;4.63;;;6.80;99.90;;;;;;5096216;27;20214;-72
2021/12/19 09:25:40;;;;;;;11.13;4.57;;;6.70;99.90;;;;;;5095790;27;20221;-71
2021/12/19 09:28:29;;;;;;;8.27;4.33;;;6.80;99.90;;;;;;5091210;27;20235;-72
2021/12/19 09:31:17;;;;;;;8.17;4.33;;;6.80;99.90;;;;;;5079680;28;20579;-71
2021/12/19 09:34:07;;;;;;;7.43;3.70;;;6.70;99.90;;;;;;5096042;27;20970;-71
2021/12/19 09:37:01;;;;;;;8.90;4.40;;;6.80;99.90;;;;;;5096415;28;20207;-73
2021/12/19 09:39:51;;;;;;;6.40;3.83;;;6.80;99.90;;;;;;5093133;28;20308;-73
2021/12/19 09:42:47;;;;;;;8.70;3.80;;;6.80;99.90;;;;;;5096113;28;20263;-73
2021/12/19 09:45:36;;;;;;;11.50;3.93;;;6.80;99.90;;;;;;5080389;28;20216;-72
2021/12/19 09:48:26;;;;;;;9.80;4.00;;;6.80;99.90;;;;;;5094700;27;20718;-71
2021/12/19 09:51:18;;;;;;;14.13;4.07;;;6.80;99.90;;;;;;5093723;28;20215;-72
2021/12/19 09:54:09;;;;;;;8.97;3.80;;;6.80;99.90;;;;;;5084287;27;21158;-72
2021/12/19 09:56:58;;;;;;;10.30;3.70;;;6.90;99.90;;;;;;5096922;27;20248;-74
2021/12/19 09:59:46;;;;;;;8.87;4.00;;;7.00;99.90;;;;;;5086657;27;20227;-68
2021/12/19 10:02:35;;;;;;;7.03;3.57;;;7.20;99.90;;;;;;5092880;28;20222;-70
2021/12/19 10:05:27;;;;;;;11.10;4.00;;;7.20;99.90;;;;;;5094677;27;20222;-70
2021/12/19 10:08:24;;;;;;;7.70;3.50;;;7.20;99.90;;;;;;5100028;28;20226;-71
2021/12/19 10:11:34;;;;;;;9.50;3.73;;;7.10;99.90;;;;;;5083070;28;20222;-69
2021/12/19 10:14:25;;;;;;;8.43;3.27;;;7.10;99.90;;;;;;5096038;28;20231;-72
2021/12/19 10:17:18;;;;;;;11.80;3.97;;;7.10;99.90;;;;;;5079556;28;20938;-71
2021/12/19 10:20:10;;;;;;;11.83;3.77;;;7.20;99.90;;;;;;5080053;28;20299;-71
2021/12/19 10:23:10;;;;;;;10.67;3.40;;;7.10;99.90;;;;;;5078758;28;20731;-72
2021/12/19 10:26:00;;;;;;;14.80;4.47;;;7.10;99.90;;;;;;5097045;28;20829;-70
2021/12/19 10:28:53;;;;;;;8.80;3.63;;;7.10;99.90;;;;;;5096098;28;20235;-71
2021/12/19 10:31:42;;;;;;;9.13;3.10;;;7.10;99.90;;;;;;5095104;28;20234;-72
2021/12/19 10:34:30;;;;;;;11.93;3.73;;;7.20;99.90;;;;;;5079424;28;20226;-70
2021/12/19 10:37:32;;;;;;;8.70;3.40;;;7.10;99.90;;;;;;5097843;28;20576;-70
2021/12/19 10:40:21;;;;;;;10.60;3.77;;;7.10;99.90;;;;;;5084381;28;20263;-70
2021/12/19 10:43:16;;;;;;;8.23;3.50;;;7.20;99.90;;;;;;5094785;28;20317;-71
2021/12/19 10:46:07;;;;;;;8.20;3.87;;;7.20;99.90;;;;;;5092832;28;20288;-67
2021/12/19 10:48:56;;;;;;;8.30;3.43;;;7.30;99.90;;;;;;5092502;28;20242;-68
2021/12/19 10:51:51;;;;;;;7.47;3.50;;;7.40;99.90;;;;;;5094677;28;20226;-68
2021/12/19 10:54:56;;;;;;;9.47;3.40;;;7.30;99.90;;;;;;5094441;28;20223;-70
2021/12/19 10:57:46;;;;;;;8.37;3.30;;;7.30;99.90;;;;;;5080954;28;20215;-70
2021/12/19 11:00:39;;;;;;;7.67;3.73;;;7.30;99.90;;;;;;5082723;28;20279;-65
2021/12/19 11:03:42;;;;;;;12.83;4.10;;;7.30;99.90;;;;;;5084495;28;20288;-65
2021/12/19 11:06:38;;;;;;;12.60;4.17;;;7.30;99.90;;;;;;5094858;28;20226;-69
2021/12/19 11:09:28;;;;;;;7.73;4.03;;;7.30;99.90;;;;;;5093999;28;20691;-69
2021/12/19 11:12:17;;;;;;;9.17;3.67;;;7.20;99.90;;;;;;5102180;28;20227;-69
2021/12/19 11:15:09;;;;;;;9.17;4.17;;;7.30;99.90;;;;;;5085703;28;20223;-70
2021/12/19 11:17:57;;;;;;;9.50;3.87;;;7.40;99.90;;;;;;5098659;28;20229;-69
2021/12/19 11:20:47;;;;;;;11.53;3.87;;;7.30;99.90;;;;;;5084924;28;20215;-68
2021/12/19 11:23:36;;;;;;;9.67;3.73;;;7.30;99.90;;;;;;5079873;28;20579;-67
2021/12/19 11:26:25;;;;;;;10.20;4.07;;;7.30;99.90;;;;;;5100995;27;20218;-66
2021/12/19 11:29:15;;;;;;;9.67;4.40;;;7.40;99.90;;;;;;5098165;28;20226;-68
2021/12/19 11:32:08;;;;;;;12.03;4.20;;;7.40;99.90;;;;;;5100158;28;20504;-68
2021/12/19 11:35:04;;;;;;;12.37;4.20;;;7.40;99.90;;;;;;5099045;28;20352;-68
2021/12/19 11:37:58;;;;;;;10.33;3.93;;;7.40;99.90;;;;;;5085258;28;20953;-67
2021/12/19 11:40:47;;;;;;;10.90;4.70;;;7.30;99.90;;;;;;5098634;28;20212;-67
2021/12/19 11:43:40;;;;;;;11.67;3.97;;;7.40;99.90;;;;;;5099201;28;20216;-68
2021/12/19 11:46:50;;;;;;;9.70;3.93;;;7.30;99.90;;;;;;5086627;28;20379;-68
2021/12/19 11:49:39;;;;;;;10.70;4.10;;;7.30;99.90;;;;;;5104798;27;20215;-67
2021/12/19 11:52:31;;;;;;;14.37;4.27;;;7.40;99.90;;;;;;5100784;28;20226;-68
2021/12/19 11:55:30;;;;;;;14.47;4.53;;;7.30;99.90;;;;;;5087326;28;20292;-67
2021/12/19 11:58:27;;;;;;;11.90;4.33;;;7.30;99.90;;;;;;5098966;28;20220;-68
2021/12/19 12:01:22;;;;;;;12.40;4.80;;;7.30;99.90;;;;;;5078035;28;20225;-69
2021/12/19 12:04:13;;;;;;;15.23;4.97;;;7.40;99.90;;;;;;5102501;27;20222;-67
2021/12/19 12:07:02;;;;;;;13.63;4.43;;;7.40;99.90;;;;;;5087796;28;20230;-67
2021/12/19 12:09:57;;;;;;;9.23;4.00;;;7.40;99.90;;;;;;5100304;28;20234;-68
2021/12/19 12:12:51;;;;;;;19.03;5.53;;;7.40;99.90;;;;;;5098168;28;20215;-67
2021/12/19 12:15:40;;;;;;;13.67;4.57;;;7.40;99.90;;;;;;5084493;28;20777;-68
2021/12/19 12:18:30;;;;;;;13.60;6.27;;;7.40;99.90;;;;;;5097804;28;20215;-68
2021/12/19 12:21:28;;;;;;;11.83;4.60;;;7.40;99.90;;;;;;5086841;28;20215;-69
2021/12/19 12:24:18;;;;;;;14.07;4.57;;;7.30;99.90;;;;;;5087939;28;20227;-69
2021/12/19 12:27:08;;;;;;;12.10;4.07;;;7.30;99.90;;;;;;5101785;28;20238;-66
2021/12/19 12:29:58;;;;;;;9.73;3.73;;;7.20;99.90;;;;;;5100252;28;20218;-66
2021/12/19 12:32:47;;;;;;;15.73;5.17;;;7.30;99.90;;;;;;5102433;28;20314;-67
2021/12/19 12:35:38;;;;;;;13.03;4.63;;;7.20;99.90;;;;;;5084231;28;20226;-69
2021/12/19 12:38:27;;;;;;;11.87;4.50;;;7.30;99.90;;;;;;5084253;28;20876;-68
2021/12/19 12:41:29;;;;;;;14.50;4.97;;;7.20;99.90;;;;;;5099622;28;20314;-71
2021/12/19 12:44:20;;;;;;;11.43;4.57;;;7.20;99.90;;;;;;5099652;28;20296;-72
2021/12/19 12:47:10;;;;;;;12.50;4.07;;;7.20;99.90;;;;;;5086177;28;20686;-71
2021/12/19 12:50:05;;;;;;;10.27;4.80;;;7.20;99.90;;;;;;5096407;28;20591;-71
2021/12/19 12:52:54;;;;;;;10.33;4.20;;;7.10;99.90;;;;;;5098263;28;20896;-71
2021/12/19 12:56:01;;;;;;;15.40;5.43;;;7.20;99.90;;;;;;5083239;28;20211;-77
2021/12/19 12:58:52;;;;;;;11.63;4.00;;;7.30;99.90;;;;;;5097649;28;20235;-72
2021/12/19 13:01:45;;;;;;;14.17;4.20;;;7.10;99.90;;;;;;5098307;28;20218;-71
2021/12/19 13:04:36;;;;;;;10.97;3.83;;;7.10;99.90;;;;;;5096432;28;20420;-74
2021/12/19 13:07:26;;;;;;;14.27;4.37;;;7.20;99.90;;;;;;5081026;28;21852;-73
2021/12/19 13:10:15;;;;;;;12.00;4.57;;;7.10;99.90;;;;;;5078634;28;20218;-72
2021/12/19 13:13:10;;;;;;;10.43;4.40;;;7.00;99.90;;;;;;5086848;28;20217;-72
2021/12/19 13:16:04;;;;;;;11.43;4.90;;;7.00;99.90;;;;;;5099767;28;20230;-77
2021/12/19 13:18:53;;;;;;;14.20;4.60;;;7.00;99.90;;;;;;5098084;28;20607;-72
2021/12/19 13:21:57;;;;;;;10.77;4.80;;;7.00;99.90;;;;;;5095423;28;20214;-70
2021/12/19 13:24:51;;;;;;;12.90;4.73;;;7.00;99.90;;;;;;5086586;28;20315;-70
2021/12/19 13:27:42;;;;;;;11.37;4.63;;;6.90;99.90;;;;;;5098312;28;20215;-71
2021/12/19 13:30:32;;;;;;;13.43;4.70;;;6.90;99.90;;;;;;5098006;27;20324;-71
2021/12/19 13:33:21;;;;;;;14.53;4.93;;;7.00;99.90;;;;;;5096281;27;20687;-71
2021/12/19 13:36:14;;;;;;;11.70;5.13;;;6.90;99.90;;;;;;5098767;28;20226;-74
2021/12/19 13:39:05;;;;;;;10.93;4.47;;;6.90;99.90;;;;;;5096727;28;20215;-70
2021/12/19 13:41:53;;;;;;;11.33;4.00;;;6.90;99.90;;;;;;5099846;28;20233;-70
2021/12/19 13:44:43;;;;;;;11.03;4.40;;;6.90;99.90;;;;;;5097613;28;20226;-70
2021/12/19 13:47:31;;;;;;;10.03;3.17;;;6.90;99.90;;;;;;5083810;28;20234;-69
2021/12/19 13:50:20;;;;;;;8.00;2.93;;;6.90;99.90;;;;;;5084666;28;20219;-71
2021/12/19 13:53:09;;;;;;;8.67;3.33;;;6.80;99.90;;;;;;5095752;28;20215;-71
2021/12/19 13:56:02;;;;;;;9.27;5.37;;;6.80;99.90;;;;;;5097900;28;20241;-66
2021/12/19 13:58:53;;;;;;;8.60;3.60;;;6.80;99.90;;;;;;5098905;28;20211;-70
2021/12/19 14:01:42;;;;;;;8.13;3.40;;;6.70;99.90;;;;;;5096717;28;20226;-69
2021/12/19 14:04:34;;;;;;;8.20;3.07;;;6.70;99.90;;;;;;5084877;28;20219;-70
2021/12/19 14:07:30;;;;;;;9.37;4.20;;;6.70;99.90;;;;;;5098638;28;20211;-71
2021/12/19 14:10:21;;;;;;;12.77;4.77;;;6.70;99.90;;;;;;5095708;28;20751;-72
2021/12/19 14:13:16;;;;;;;16.43;7.37;;;6.70;99.90;;;;;;5097127;28;20238;-68
2021/12/19 14:16:07;;;;;;;8.03;3.27;;;6.70;99.90;;;;;;5096750;28;20217;-69
2021/12/19 14:18:55;;;;;;;7.03;3.10;;;6.70;99.90;;;;;;5099279;27;20233;-69
2021/12/19 14:21:45;;;;;;;7.03;3.20;;;6.70;99.90;;;;;;5098378;28;20591;-70
2021/12/19 14:24:36;;;;;;;8.40;3.23;;;6.70;99.90;;;;;;5101192;28;20227;-71
2021/12/19 14:27:27;;;;;;;6.70;3.00;;;6.70;99.90;;;;;;5095083;28;20226;-70
2021/12/19 14:30:19;;;;;;;8.37;3.07;;;6.70;99.90;;;;;;5081363;28;20227;-71
2021/12/19 14:33:08;;;;;;;7.03;2.90;;;6.60;99.90;;;;;;5090963;28;20245;-69
2021/12/19 14:35:57;;;;;;;9.53;3.10;;;6.70;99.90;;;;;;5094982;28;20454;-69
2021/12/19 14:38:49;;;;;;;9.93;4.10;;;6.60;99.90;;;;;;5093205;28;20226;-70
2021/12/19 14:41:38;;;;;;;12.00;5.27;;;6.60;99.90;;;;;;5098139;28;20233;-70
2021/12/19 14:44:27;;;;;;;11.00;4.23;;;6.70;99.90;;;;;;5079216;28;20211;-70
2021/12/19 14:47:35;;;;;;;7.47;3.20;;;6.60;99.90;;;;;;5083618;28;20237;-70
2021/12/19 14:50:27;;;;;;;7.13;3.00;;;6.70;99.90;;;;;;5101773;27;20571;-69
2021/12/19 14:53:21;;;;;;;7.17;3.00;;;6.60;99.90;;;;;;5090758;28;20230;-69
2021/12/19 14:56:13;;;;;;;10.47;3.57;;;6.60;99.90;;;;;;5104288;28;20980;-69
2021/12/19 14:59:05;;;;;;;7.50;3.40;;;6.70;99.90;;;;;;5100580;28;20920;-69
2021/12/19 15:01:55;;;;;;;9.67;4.30;;;6.70;99.90;;;;;;5103800;27;20226;-68
2021/12/19 15:05:02;;;;;;;9.30;3.13;;;6.70;99.90;;;;;;5101484;28;20659;-71
2021/12/19 15:07:50;;;;;;;8.17;3.20;;;6.60;99.90;;;;;;5101372;28;20215;-69
2021/12/19 15:10:39;;;;;;;10.50;3.80;;;6.70;99.90;;;;;;5098671;28;20698;-70
2021/12/19 15:13:30;;;;;;;9.50;3.40;;;6.70;99.90;;;;;;5103615;28;20215;-69
2021/12/19 15:16:19;;;;;;;8.80;3.77;;;6.70;99.90;;;;;;5095242;28;20581;-70
2021/12/19 15:19:08;;;;;;;11.23;4.47;;;6.70;99.90;;;;;;5100702;28;20582;-68
2021/12/19 15:21:58;;;;;;;9.00;3.27;;;6.60;99.90;;;;;;5085091;28;20218;-69
2021/12/19 15:24:47;;;;;;;10.07;4.03;;;6.50;99.90;;;;;;5101492;27;20211;-69
2021/12/19 15:27:36;;;;;;;9.73;3.20;;;6.50;99.90;;;;;;5088291;28;20215;-68
2021/12/19 15:30:24;;;;;;;7.83;3.30;;;6.50;99.90;;;;;;5076092;28;20219;-69
2021/12/19 15:33:14;;;;;;;7.33;2.80;;;6.60;99.90;;;;;;5098612;28;20215;-70
2021/12/19 15:36:05;;;;;;;7.80;2.50;;;6.50;99.90;;;;;;5100444;28;20214;-69
2021/12/19 15:38:57;;;;;;;4.60;2.30;;;6.40;99.90;;;;;;5099997;28;20684;-67